Time;durP1;ratioP1;P1;durP2;ratioP2;P2;SDS_P1;SDS_P2;PMS_P1;PMS_P2;Temp;Humidity;BMP_temperature;BMP_pressure;BME280_temperature;BME280_humidity;BME280_pressure;Samples;Min_cycle;Max_cycle;Signal;HPM_P1;HPM_P2
2023/01/17 00:01:46;;;;;;;28.70;13.90;;;;;;;7.33;64.65;97450.47;7657553;32;40901;-81
2023/01/17 00:10:39;;;;;;;27.05;14.73;;;;;;;7.30;64.64;97448.34;7671815;32;37265;-82
2023/01/17 00:14:57;;;;;;;25.70;13.65;;;;;;;7.18;65.14;97447.31;7697883;32;39328;-80
2023/01/17 01:35:57;;;;;;;27.52;12.50;;;;;;;7.03;65.90;97437.63;7657243;32;37849;-81
2023/01/17 01:40:15;;;;;;;27.65;14.23;;;;;;;6.81;66.63;97441.88;7657205;32;37040;-81
2023/01/17 01:44:53;;;;;;;31.30;13.85;;;;;;;6.77;66.52;97444.41;7657171;32;38314;-82
2023/01/17 01:49:17;;;;;;;32.67;16.02;;;;;;;7.01;66.33;97448.75;7656844;32;41186;-81
2023/01/17 01:53:37;;;;;;;33.45;14.80;;;;;;;7.05;66.34;97455.16;7656815;32;37962;-81
2023/01/17 01:57:58;;;;;;;28.12;14.40;;;;;;;6.87;67.29;97458.84;7671200;32;37286;-81
2023/01/17 02:02:14;;;;;;;29.35;13.43;;;;;;;6.75;67.70;97449.31;7713159;32;40115;-81
2023/01/17 02:06:40;;;;;;;25.90;13.15;;;;;;;6.97;67.11;97442.34;7698296;32;40787;-81
2023/01/17 02:10:57;;;;;;;27.40;12.90;;;;;;;6.76;67.85;97440.09;7673182;32;38622;-78
2023/01/17 02:15:13;;;;;;;26.98;12.98;;;;;;;6.72;68.08;97430.97;7686164;32;37231;-81
2023/01/17 02:19:55;;;;;;;25.02;12.88;;;;;;;6.95;67.43;97422.88;7686355;32;39120;-81
2023/01/17 02:24:26;;;;;;;23.95;11.45;;;;;;;6.86;67.70;97419.31;7674738;32;39903;-81
2023/01/17 02:29:09;;;;;;;27.35;12.15;;;;;;;6.74;67.83;97436.91;7686153;32;38752;-81
2023/01/17 02:33:43;;;;;;;27.17;10.88;;;;;;;6.74;68.18;97436.91;7651196;32;37261;-81
2023/01/17 02:37:59;;;;;;;18.10;9.35;;;;;;;7.19;66.71;97419.09;7706093;32;39895;-81
2023/01/17 02:42:18;;;;;;;21.08;11.60;;;;;;;7.02;66.87;97412.44;7712629;32;39745;-82
2023/01/17 02:46:56;;;;;;;18.70;7.85;;;;;;;6.70;67.48;97395.28;7699081;32;37881;-82
2023/01/17 02:51:37;;;;;;;17.20;8.23;;;;;;;6.94;66.24;97403.13;7698810;32;37086;-83
2023/01/17 02:55:56;;;;;;;16.05;8.00;;;;;;;7.09;66.04;97388.44;7712568;32;40283;-81
2023/01/17 03:00:31;;;;;;;16.08;8.93;;;;;;;7.06;66.28;97380.91;7698867;32;39981;-81
2023/01/17 03:05:22;;;;;;;15.48;7.53;;;;;;;7.37;65.35;97363.91;7712431;32;37482;-81
2023/01/17 03:09:42;;;;;;;12.23;7.32;;;;;;;7.34;65.37;97368.03;7698391;32;36916;-81
2023/01/17 03:13:58;;;;;;;12.75;7.12;;;;;;;7.06;66.04;97364.66;7699227;32;39375;-81
2023/01/17 03:18:15;;;;;;;9.07;5.75;;;;;;;7.15;66.15;97356.59;7685466;32;39966;-81
2023/01/17 03:22:32;;;;;;;14.20;6.97;;;;;;;6.98;66.32;97361.88;7685541;32;37761;-81
2023/01/17 03:26:48;;;;;;;12.32;5.82;;;;;;;7.19;66.07;97352.12;7685608;32;37959;-82
2023/01/17 03:31:04;;;;;;;11.85;6.18;;;;;;;7.16;66.42;97344.66;7685500;32;39347;-81
2023/01/17 03:35:21;;;;;;;14.27;6.32;;;;;;;6.92;67.42;97353.09;7671870;32;41019;-81
2023/01/17 03:39:37;;;;;;;12.90;7.28;;;;;;;7.01;67.59;97332.28;7685231;32;37852;-81
2023/01/17 03:43:53;;;;;;;13.73;7.32;;;;;;;7.26;66.73;97320.00;7685311;32;37091;-81
2023/01/17 03:48:10;;;;;;;13.77;7.57;;;;;;;7.41;66.19;97318.00;7685404;32;39259;-81
2023/01/17 03:52:27;;;;;;;15.07;8.30;;;;;;;7.29;66.66;97307.72;7685179;32;40103;-81
2023/01/17 03:56:43;;;;;;;16.55;8.45;;;;;;;7.03;67.52;97305.66;7701355;32;37715;-81
2023/01/17 04:00:59;;;;;;;14.38;7.57;;;;;;;7.30;66.89;97302.00;7705720;32;37697;-81
2023/01/17 04:05:15;;;;;;;15.07;8.00;;;;;;;7.13;67.54;97300.00;7685136;32;39446;-78
2023/01/17 04:09:33;;;;;;;14.23;8.57;;;;;;;7.50;66.59;97292.53;7685042;32;40941;-81
2023/01/17 04:13:49;;;;;;;13.10;7.62;;;;;;;7.68;65.69;97282.56;7708330;32;36238;-81
2023/01/17 04:18:06;;;;;;;14.38;7.32;;;;;;;7.56;66.28;97278.84;7711437;32;37712;-81
2023/01/17 04:22:22;;;;;;;14.68;8.60;;;;;;;7.59;66.34;97270.88;7711564;32;40125;-80
2023/01/17 04:26:38;;;;;;;16.58;8.82;;;;;;;7.40;66.69;97273.84;7711449;32;40733;-82
2023/01/17 04:30:58;;;;;;;17.75;9.48;;;;;;;7.58;66.33;97282.03;7708021;32;37809;-82
2023/01/17 04:35:15;;;;;;;16.48;9.40;;;;;;;7.48;66.65;97266.84;7684851;32;37089;-82
2023/01/17 04:39:31;;;;;;;16.52;9.07;;;;;;;7.53;66.68;97270.19;7671125;32;39058;-82
2023/01/17 04:43:47;;;;;;;12.52;7.50;;;;;;;7.45;66.99;97265.56;7700214;32;40582;-81
2023/01/17 04:48:07;;;;;;;12.50;7.18;;;;;;;7.48;67.12;97262.22;7711146;32;38015;-81
2023/01/17 04:52:24;;;;;;;14.95;7.85;;;;;;;7.40;67.19;97268.41;7711201;32;37890;-81
2023/01/17 04:56:40;;;;;;;15.38;8.40;;;;;;;7.52;67.08;97275.97;7711017;32;39968;-82
2023/01/17 05:01:04;;;;;;;13.05;8.10;;;;;;;7.66;66.44;97259.59;7710608;32;40058;-82
2023/01/17 05:05:21;;;;;;;13.80;8.45;;;;;;;7.71;66.13;97267.56;7710922;32;37794;-81
2023/01/17 05:09:37;;;;;;;14.55;7.32;;;;;;;7.65;66.67;97274.25;7710744;32;36860;-79
2023/01/17 05:13:53;;;;;;;14.15;7.43;;;;;;;7.21;68.12;97284.09;7710508;32;39058;-82
2023/01/17 05:18:13;;;;;;;12.68;5.87;;;;;;;7.72;66.65;97282.72;7710636;32;39678;-81
2023/01/17 05:22:30;;;;;;;8.88;4.72;;;;;;;7.34;67.06;97278.56;7694912;32;37740;-81
2023/01/17 05:26:53;;;;;;;8.13;4.82;;;;;;;7.36;66.47;97291.81;7683798;32;37057;-83
2023/01/17 05:31:09;;;;;;;5.85;3.60;;;;;;;7.20;66.97;97274.38;7683253;32;40267;-81
2023/01/17 05:35:33;;;;;;;9.13;4.20;;;;;;;7.42;65.82;97274.31;7684098;32;40743;-82
2023/01/17 05:39:49;;;;;;;7.47;4.00;;;;;;;7.59;65.30;97278.19;7683515;32;38776;-81
2023/01/17 05:44:06;;;;;;;6.80;3.55;;;;;;;7.06;66.23;97294.22;7683448;32;37060;-81
2023/01/17 05:48:22;;;;;;;8.55;4.15;;;;;;;6.92;67.42;97290.78;7683419;32;39374;-81
2023/01/17 05:52:38;;;;;;;5.70;3.60;;;;;;;6.91;67.05;97298.09;7683215;32;39904;-81
2023/01/17 05:56:55;;;;;;;6.47;3.90;;;;;;;6.68;67.98;97297.31;7683017;32;38568;-81
2023/01/17 06:01:11;;;;;;;5.65;3.50;;;;;;;6.79;67.61;97302.47;7683045;32;37037;-82
2023/01/17 06:05:28;;;;;;;6.50;3.60;;;;;;;6.69;67.09;97306.22;7695657;32;40359;-81
2023/01/17 06:09:44;;;;;;;6.85;3.60;;;;;;;7.08;66.32;97310.16;7709200;32;40129;-81
2023/01/17 06:14:00;;;;;;;8.80;3.92;;;;;;;6.78;66.46;97317.94;7709077;32;38573;-82
2023/01/17 06:18:17;;;;;;;6.93;4.15;;;;;;;6.68;67.26;97320.88;7709206;32;37795;-81
2023/01/17 06:22:33;;;;;;;5.78;3.83;;;;;;;6.71;67.22;97333.78;7709207;32;39111;-80
2023/01/17 06:26:49;;;;;;;7.40;4.65;;;;;;;6.67;67.61;97344.44;7697862;32;39991;-80
2023/01/17 06:31:09;;;;;;;6.90;4.32;;;;;;;5.76;70.97;97356.03;7682414;32;37736;-81
2023/01/17 06:35:25;;;;;;;8.07;4.78;;;;;;;6.07;70.06;97360.88;7682415;32;37830;-81
2023/01/17 06:39:41;;;;;;;9.05;4.62;;;;;;;6.11;70.31;97361.91;7682277;32;40047;-80
2023/01/17 06:43:57;;;;;;;6.18;3.72;;;;;;;5.65;71.78;97367.06;7694984;32;40023;-80
2023/01/17 06:48:14;;;;;;;6.57;3.17;;;;;;;5.47;72.54;97397.66;7712664;32;38554;-81
2023/01/17 06:52:30;;;;;;;6.75;3.80;;;;;;;5.30;72.27;97400.13;7712517;32;37849;-81
2023/01/17 06:56:46;;;;;;;5.82;3.45;;;;;;;4.86;74.15;97410.25;7712533;32;39347;-82
2023/01/17 07:01:12;;;;;;;7.55;4.70;;;;;;;5.23;73.61;97430.22;7712527;32;39032;-81
2023/01/17 07:05:28;;;;;;;6.57;3.92;;;;;;;4.73;75.77;97438.78;7712362;32;40068;-81
2023/01/17 07:09:45;;;;;;;4.25;3.53;;;;;;;5.12;72.17;97444.97;7712036;32;36794;-81
2023/01/17 07:14:01;;;;;;;4.05;3.20;;;;;;;5.42;70.69;97458.00;7710871;32;39356;-83
2023/01/17 07:18:22;;;;;;;4.12;3.33;;;;;;;5.34;70.08;97468.69;7712219;32;39944;-81
2023/01/17 07:22:38;;;;;;;4.93;3.60;;;;;;;5.65;68.58;97480.59;7712205;32;37836;-80
2023/01/17 07:26:54;;;;;;;5.60;3.62;;;;;;;5.63;68.28;97493.59;7703515;32;37148;-83
2023/01/17 07:31:10;;;;;;;4.20;3.10;;;;;;;5.51;68.42;97498.66;7692450;32;40150;-82
2023/01/17 07:35:28;;;;;;;5.12;2.87;;;;;;;5.43;68.50;97502.03;7680716;32;39864;-82
2023/01/17 07:39:44;;;;;;;4.12;2.85;;;;;;;5.60;67.50;97515.81;7685126;32;38519;-80
2023/01/17 07:44:00;;;;;;;5.62;3.45;;;;;;;5.51;67.01;97522.19;7685244;32;37149;-82
2023/01/17 07:48:18;;;;;;;4.62;3.37;;;;;;;5.04;67.90;97532.88;7685443;32;39539;-81
2023/01/17 07:52:34;;;;;;;4.37;3.22;;;;;;;5.11;67.97;97557.62;7700582;32;40873;-82
2023/01/17 07:56:52;;;;;;;4.25;3.12;;;;;;;4.56;69.00;97562.59;7709979;32;36864;-82
2023/01/17 08:01:11;;;;;;;4.40;3.28;;;;;;;4.72;68.95;97558.62;7686080;32;37236;-80
2023/01/17 08:05:29;;;;;;;4.65;3.15;;;;;;;4.87;69.71;97563.84;7685122;32;38322;-81
2023/01/17 08:09:48;;;;;;;3.62;2.80;;;;;;;4.94;68.32;97558.09;7686326;32;39104;-81
2023/01/17 08:14:04;;;;;;;5.05;3.12;;;;;;;5.13;67.00;97568.91;7707603;32;38709;-81
2023/01/17 08:18:20;;;;;;;4.40;3.10;;;;;;;4.67;67.50;97581.09;7710706;32;37152;-82
2023/01/17 08:22:37;;;;;;;5.28;3.20;;;;;;;4.95;67.10;97588.59;7710268;32;40146;-81
2023/01/17 08:26:56;;;;;;;4.85;3.10;;;;;;;5.31;65.61;97599.75;7688756;32;40819;-81
2023/01/17 08:31:12;;;;;;;6.35;3.60;;;;;;;5.30;66.24;97602.75;7688735;32;37960;-83
2023/01/17 08:35:28;;;;;;;5.32;3.30;;;;;;;5.05;65.91;97599.28;7683176;32;37168;-82
2023/01/17 08:39:44;;;;;;;5.10;3.65;;;;;;;5.58;64.92;97612.62;7699960;32;39337;-81
2023/01/17 08:44:01;;;;;;;3.85;3.15;;;;;;;5.41;64.98;97615.81;7702282;32;40810;-83
2023/01/17 08:48:17;;;;;;;6.85;3.55;;;;;;;5.37;64.74;97603.19;7671985;32;38400;-83
2023/01/17 08:52:34;;;;;;;5.68;3.55;;;;;;;5.75;67.33;97565.34;7696309;32;37019;-84
2023/01/17 08:56:51;;;;;;;3.20;2.72;;;;;;;6.41;65.34;97566.12;7695692;32;39525;-83
2023/01/17 09:01:08;;;;;;;4.10;2.53;;;;;;;6.32;63.19;97568.72;7700812;32;40796;-82
2023/01/17 09:05:24;;;;;;;3.62;2.50;;;;;;;6.44;64.02;97573.66;7707004;32;38707;-85
2023/01/17 09:09:40;;;;;;;2.60;2.40;;;;;;;6.68;62.08;97580.81;7696632;32;36737;-83
2023/01/17 09:13:57;;;;;;;2.08;1.98;;;;;;;7.00;62.82;97581.81;7683794;32;39312;-83
2023/01/17 09:18:13;;;;;;;2.10;1.90;;;;;;;7.06;60.10;97597.66;7684458;32;39900;-84
2023/01/17 09:22:29;;;;;;;3.80;2.30;;;;;;;6.96;60.40;97597.88;7683917;32;37537;-84
2023/01/17 09:26:45;;;;;;;3.83;2.20;;;;;;;7.11;61.97;97610.31;7687149;32;36827;-83
2023/01/17 09:31:06;;;;;;;3.10;2.35;;;;;;;7.00;61.90;97631.37;7704988;32;39897;-80
2023/01/17 09:35:23;;;;;;;2.75;2.47;;;;;;;6.83;61.80;97647.41;7677571;32;41268;-81
2023/01/17 09:39:39;;;;;;;3.17;2.30;;;;;;;6.99;61.17;97646.03;7687083;32;37564;-84
2023/01/17 09:44:00;;;;;;;2.45;2.25;;;;;;;7.14;61.53;97662.00;7691377;32;37766;-84
2023/01/17 09:48:24;;;;;;;3.92;2.12;;;;;;;7.02;60.16;97667.09;7709794;32;39342;-85
2023/01/17 09:52:40;;;;;;;2.42;2.20;;;;;;;7.15;60.60;97660.06;7708973;32;40845;-84
2023/01/17 09:57:27;;;;;;;1.90;1.70;;;;;;;7.54;60.02;97677.72;7708248;32;37580;-84
2023/01/17 10:02:43;;;;;;;3.40;2.00;;;;;;;7.55;59.55;97683.94;7696878;32;37733;-84
2023/01/17 10:07:09;;;;;;;2.37;2.17;;;;;;;7.41;60.38;97697.50;7573949;33;39100;-85
2023/01/17 10:11:29;;;;;;;2.85;2.17;;;;;;;7.64;61.77;97710.06;7659092;32;39588;-83
2023/01/17 10:15:54;;;;;;;2.47;2.28;;;;;;;7.85;62.35;97699.56;7693192;32;38279;-83
2023/01/17 10:20:32;;;;;;;7.47;3.03;;;;;;;8.69;61.09;97699.28;7709502;32;36704;-84
2023/01/17 10:25:26;;;;;;;4.40;2.95;;;;;;;9.06;58.67;97684.47;7711927;32;39872;-84
2023/01/17 10:29:44;;;;;;;5.60;3.00;;;;;;;8.60;59.20;97678.28;7712940;32;39924;-85
2023/01/17 10:34:05;;;;;;;4.12;2.90;;;;;;;9.33;59.26;97688.88;7712917;32;36680;-83
2023/01/17 10:38:33;;;;;;;3.95;2.65;;;;;;;9.69;55.56;97693.31;7699560;32;37033;-83
2023/01/17 10:43:26;;;;;;;3.90;2.65;;;;;;;9.94;56.68;97694.44;7712834;32;39279;-83
2023/01/17 10:47:49;;;;;;;4.45;2.95;;;;;;;10.08;53.30;97688.06;7691065;32;39867;-83
2023/01/17 10:52:24;;;;;;;3.30;2.33;;;;;;;10.55;55.26;97671.06;7699384;32;38630;-84
2023/01/17 10:56:40;;;;;;;6.55;2.20;;;;;;;10.93;52.42;97656.72;7708164;32;37891;-84
2023/01/17 11:01:05;;;;;;;5.72;2.60;;;;;;;11.36;51.59;97653.00;7685663;32;37885;-84
2023/01/17 11:05:30;;;;;;;3.70;2.28;;;;;;;11.43;52.98;97648.63;7702274;32;39636;-83
2023/01/17 11:09:49;;;;;;;2.97;1.90;;;;;;;12.29;50.95;97622.97;7712428;32;38047;-84
2023/01/17 11:14:20;;;;;;;3.10;2.03;;;;;;;12.37;48.69;97620.16;7679706;32;37795;-83
2023/01/17 11:18:39;;;;;;;2.17;1.87;;;;;;;12.54;47.44;97605.53;7662672;32;39341;-84
2023/01/17 11:23:05;;;;;;;2.92;1.60;;;;;;;12.75;49.28;97608.19;7655401;32;40605;-75
2023/01/17 11:27:32;;;;;;;2.40;1.60;;;;;;;13.23;46.47;97594.06;7656157;32;37682;-85
2023/01/17 11:31:49;;;;;;;2.65;1.65;;;;;;;13.11;44.20;97584.75;7666824;32;37003;-84
2023/01/17 11:36:05;;;;;;;1.73;1.40;;;;;;;13.45;45.34;97582.69;7676714;32;40269;-86
2023/01/17 11:40:28;;;;;;;1.75;1.62;;;;;;;13.40;44.10;97593.88;7685321;32;40748;-87
2023/01/17 11:44:44;;;;;;;1.93;1.60;;;;;;;13.82;45.02;97577.13;7671278;32;38660;-88
2023/01/17 11:49:00;;;;;;;3.42;1.87;;;;;;;14.08;42.64;97573.94;7654659;32;37180;-78
2023/01/17 11:53:30;;;;;;;2.20;1.62;;;;;;;14.41;41.43;97567.38;7655552;32;38882;-84
2023/01/17 11:57:49;;;;;;;3.22;1.80;;;;;;;14.92;41.47;97565.94;7653824;32;39329;-83
2023/01/17 12:02:35;;;;;;;4.07;1.98;;;;;;;14.22;39.23;97573.53;7655796;32;37851;-83
2023/01/17 12:07:01;;;;;;;3.45;2.08;;;;;;;13.97;42.36;97566.56;7657423;32;37121;-85
2023/01/17 12:16:57;;;;;;;3.72;1.73;;;;;;;14.19;42.13;97568.75;7664707;32;39908;-84
2023/01/17 12:21:28;;;;;;;1.95;1.55;;;;;;;13.89;40.77;97580.06;7684378;32;38515;-83
2023/01/17 12:25:54;;;;;;;3.80;1.90;;;;;;;14.04;39.16;97588.72;7681685;32;37987;-83
2023/01/17 12:30:24;;;;;;;5.40;2.00;;;;;;;12.70;42.18;97600.19;7683205;32;40174;-84
2023/01/17 12:34:49;;;;;;;1.67;1.50;;;;;;;12.90;41.73;97597.69;7684721;32;39872;-83
2023/01/17 12:39:10;;;;;;;3.05;1.55;;;;;;;13.01;39.71;97604.34;7683457;32;38449;-83
2023/01/17 12:43:37;;;;;;;2.62;1.55;;;;;;;12.60;40.61;97597.91;7684625;32;37048;-84
2023/01/17 12:48:01;;;;;;;1.73;1.58;;;;;;;12.58;39.51;97598.22;7684747;32;39145;-83
2023/01/17 12:52:31;;;;;;;2.80;1.75;;;;;;;12.91;37.99;97602.84;7671595;32;39856;-83
2023/01/17 12:57:01;;;;;;;2.97;1.87;;;;;;;12.99;39.05;97594.84;7672276;32;38500;-83
2023/01/17 13:01:41;;;;;;;2.28;1.65;;;;;;;12.92;39.47;97592.72;7671352;32;37677;-82
2023/01/17 13:06:00;;;;;;;2.90;1.90;;;;;;;12.73;39.81;97594.06;7672746;32;40161;-83
2023/01/17 13:10:18;;;;;;;4.45;1.95;;;;;;;12.57;41.78;97615.78;7684228;32;40760;-82
2023/01/17 13:14:34;;;;;;;2.95;1.60;;;;;;;12.38;40.87;97607.28;7684213;32;37921;-82
2023/01/17 13:18:51;;;;;;;2.53;1.70;;;;;;;12.20;42.38;97606.66;7683731;32;37791;-83
2023/01/17 13:23:35;;;;;;;2.00;1.80;;;;;;;11.90;43.11;97595.00;7684200;32;39132;-83
2023/01/17 13:28:08;;;;;;;3.05;1.75;;;;;;;11.55;43.92;97584.34;7672548;32;40833;-83
2023/01/17 13:32:33;;;;;;;3.30;1.80;;;;;;;11.62;44.04;97590.06;7683832;32;38765;-83
2023/01/17 13:36:59;;;;;;;2.08;1.65;;;;;;;11.33;44.62;97585.47;7683790;32;37636;-83
2023/01/17 13:41:42;;;;;;;2.15;1.70;;;;;;;11.08;45.81;97594.25;7683683;32;39135;-83
2023/01/17 13:46:02;;;;;;;2.08;1.62;;;;;;;10.87;46.65;97605.09;7683609;32;40125;-83
2023/01/17 13:50:39;;;;;;;5.25;1.50;;;;;;;10.73;46.38;97609.97;7683991;32;38829;-83
2023/01/17 13:54:58;;;;;;;2.33;1.80;;;;;;;10.61;45.43;97618.03;7686761;32;36824;-83
2023/01/17 13:59:28;;;;;;;2.90;2.10;;;;;;;10.62;45.69;97622.34;7673380;32;38205;-83
2023/01/17 14:03:50;;;;;;;2.78;1.92;;;;;;;10.30;46.71;97611.62;7686516;32;40329;-83
2023/01/17 14:08:17;;;;;;;3.45;2.08;;;;;;;10.21;46.57;97594.53;7686424;32;37968;-83
2023/01/17 14:12:34;;;;;;;4.68;1.90;;;;;;;10.13;47.39;97574.34;7658737;32;36796;-83
2023/01/17 14:16:50;;;;;;;2.60;1.83;;;;;;;10.02;46.90;97564.09;7661878;32;40121;-84
2023/01/17 14:21:22;;;;;;;2.37;1.80;;;;;;;9.85;48.93;97548.59;7686112;32;40135;-83
2023/01/17 14:25:39;;;;;;;2.58;1.90;;;;;;;9.76;49.13;97546.69;7686178;32;38605;-84
2023/01/17 14:30:00;;;;;;;2.10;1.52;;;;;;;9.83;49.33;97529.06;7686147;32;37827;-81
2023/01/17 14:34:21;;;;;;;4.70;2.25;;;;;;;9.96;49.89;97509.03;7685079;32;39462;-80
2023/01/17 14:38:42;;;;;;;3.78;2.10;;;;;;;9.71;48.71;97491.63;7684739;32;39799;-80
2023/01/17 14:43:05;;;;;;;4.22;2.25;;;;;;;9.53;49.43;97488.13;7686144;32;37930;-81
2023/01/17 14:47:21;;;;;;;2.50;2.13;;;;;;;9.42;49.73;97482.22;7682394;32;37135;-82
2023/01/17 14:51:39;;;;;;;3.58;2.33;;;;;;;9.32;50.57;97483.34;7656973;32;39297;-81
2023/01/17 14:56:17;;;;;;;3.90;2.30;;;;;;;9.35;49.35;97466.38;7632420;32;40720;-81
2023/01/17 15:00:38;;;;;;;3.22;2.30;;;;;;;9.37;49.18;97457.91;7632340;32;38956;-81
2023/01/17 15:04:54;;;;;;;4.07;2.30;;;;;;;9.22;49.53;97461.91;7632188;32;38548;-81
2023/01/17 15:09:15;;;;;;;3.33;2.00;;;;;;;9.38;48.85;97456.78;7632745;32;39380;-80
2023/01/17 15:13:34;;;;;;;4.68;2.35;;;;;;;9.17;50.09;97443.81;7631168;32;41250;-81
2023/01/17 15:18:20;;;;;;;3.95;2.30;;;;;;;8.91;50.12;97454.69;7631616;32;38360;-82
2023/01/17 15:22:37;;;;;;;7.87;2.90;;;;;;;9.13;49.89;97458.38;7632501;32;39283;-81
2023/01/17 15:26:54;;;;;;;4.10;2.58;;;;;;;8.61;52.22;97451.75;7632591;32;39315;-81
2023/01/17 15:31:24;;;;;;;4.65;2.50;;;;;;;8.94;50.89;97450.53;7632288;32;39976;-82
2023/01/17 15:35:40;;;;;;;6.15;3.22;;;;;;;8.80;51.23;97439.81;7631370;32;38733;-81
2023/01/17 15:40:17;;;;;;;7.03;3.45;;;;;;;8.79;51.56;97440.91;7630926;32;36984;-81
2023/01/17 15:44:36;;;;;;;9.15;4.03;;;;;;;8.70;52.26;97450.97;7631746;32;39281;-81
2023/01/17 15:49:21;;;;;;;12.93;6.80;;;;;;;8.26;54.51;97448.91;7631075;32;39942;-81
2023/01/17 15:53:40;;;;;;;9.00;4.15;;;;;;;7.97;56.32;97441.28;7631425;32;37904;-81
2023/01/17 15:57:56;;;;;;;13.07;6.47;;;;;;;8.02;55.81;97438.44;7631271;32;37790;-81
2023/01/17 16:02:42;;;;;;;9.63;4.90;;;;;;;8.35;55.75;97440.78;7630504;32;38429;-81
2023/01/17 16:07:32;;;;;;;6.60;3.53;;;;;;;8.18;56.47;97446.94;7631885;32;40880;-81
2023/01/17 16:11:49;;;;;;;5.97;3.62;;;;;;;8.08;55.47;97442.59;7634014;32;37656;-81
2023/01/17 16:16:16;;;;;;;6.70;3.50;;;;;;;8.17;55.50;97441.84;7658453;32;36392;-81
2023/01/17 16:20:37;;;;;;;5.78;3.67;;;;;;;7.92;56.00;97444.12;7658785;32;39451;-81
2023/01/17 16:24:57;;;;;;;5.45;3.40;;;;;;;8.14;55.53;97446.00;7697039;32;40136;-81
2023/01/17 16:29:13;;;;;;;7.30;4.15;;;;;;;8.00;56.83;97442.56;7710976;32;37746;-81
2023/01/17 16:33:30;;;;;;;5.10;3.45;;;;;;;7.83;58.42;97440.56;7710612;32;37042;-81
2023/01/17 16:37:49;;;;;;;5.87;3.80;;;;;;;7.87;58.78;97431.50;7711236;32;40127;-80
2023/01/17 16:42:09;;;;;;;6.35;3.53;;;;;;;7.95;57.79;97418.28;7710187;32;39902;-81
2023/01/17 16:46:26;;;;;;;6.40;3.58;;;;;;;7.51;59.21;97413.41;7710806;32;38318;-82
2023/01/17 16:50:49;;;;;;;5.47;3.37;;;;;;;7.79;59.04;97413.25;7710455;32;37158;-81
2023/01/17 16:55:08;;;;;;;7.47;4.18;;;;;;;8.09;58.28;97400.78;7709634;32;39185;-81
2023/01/17 16:59:24;;;;;;;9.77;4.10;;;;;;;8.05;58.76;97399.00;7711005;32;38923;-81
2023/01/17 17:03:44;;;;;;;5.97;3.92;;;;;;;7.80;59.80;97398.59;7674880;32;37787;-81
2023/01/17 17:08:00;;;;;;;5.80;3.70;;;;;;;7.86;59.55;97394.63;7683601;32;37129;-81
2023/01/17 17:12:17;;;;;;;8.38;4.40;;;;;;;8.07;58.98;97396.78;7683366;32;40091;-82
2023/01/17 17:16:33;;;;;;;5.37;3.47;;;;;;;7.78;61.04;97395.37;7683931;32;39847;-79
2023/01/17 17:20:49;;;;;;;9.32;4.10;;;;;;;7.77;61.27;97401.13;7684026;32;39172;-78
2023/01/17 17:25:06;;;;;;;9.20;4.30;;;;;;;7.70;61.94;97398.84;7682351;32;36762;-82
2023/01/17 17:29:22;;;;;;;6.75;4.00;;;;;;;7.76;61.82;97400.34;7683985;32;40107;-81
2023/01/17 17:33:39;;;;;;;5.80;3.92;;;;;;;7.77;61.76;97382.94;7682888;32;39896;-81
2023/01/17 17:37:55;;;;;;;6.75;4.07;;;;;;;7.52;62.85;97379.00;7683342;32;37786;-81
2023/01/17 17:42:12;;;;;;;9.20;4.10;;;;;;;7.58;63.45;97371.50;7683316;32;36937;-81
2023/01/17 17:46:29;;;;;;;5.75;3.78;;;;;;;7.23;65.10;97368.59;7669395;32;40343;-81
2023/01/17 17:50:54;;;;;;;6.28;4.05;;;;;;;7.47;63.77;97379.91;7683334;32;40651;-81
2023/01/17 17:55:17;;;;;;;8.88;3.75;;;;;;;7.21;64.90;97382.47;7670540;32;38675;-82
2023/01/17 17:59:34;;;;;;;5.20;3.78;;;;;;;7.22;64.68;97351.53;7682930;32;37036;-81
2023/01/17 18:03:51;;;;;;;6.97;3.83;;;;;;;7.27;64.69;97356.81;7682428;32;39396;-81
2023/01/17 18:08:09;;;;;;;7.70;3.97;;;;;;;7.18;65.09;97349.75;7682701;32;40707;-81
2023/01/17 18:12:26;;;;;;;4.62;3.30;;;;;;;7.14;65.61;97339.53;7675337;32;37728;-81
2023/01/17 18:16:43;;;;;;;5.93;3.12;;;;;;;7.02;65.25;97327.66;7682292;32;37111;-81
2023/01/17 18:21:16;;;;;;;3.50;2.75;;;;;;;7.23;64.80;97309.00;7682529;32;39319;-81
2023/01/17 18:25:34;;;;;;;3.60;2.80;;;;;;;7.22;64.25;97301.97;7682074;32;40002;-81
2023/01/17 18:29:51;;;;;;;4.05;2.67;;;;;;;6.75;66.09;97300.38;7682206;32;39086;-81
2023/01/17 18:34:10;;;;;;;4.05;3.00;;;;;;;7.00;66.11;97290.03;7682220;32;36899;-80
2023/01/17 18:38:27;;;;;;;3.53;2.45;;;;;;;7.33;64.57;97276.19;7684429;32;38961;-81
2023/01/17 18:42:43;;;;;;;4.85;3.00;;;;;;;7.31;64.88;97256.72;7685225;32;40538;-81
2023/01/17 18:47:03;;;;;;;6.72;3.20;;;;;;;7.33;64.67;97228.22;7684387;32;38526;-81
2023/01/17 18:51:20;;;;;;;5.28;3.30;;;;;;;7.14;64.99;97212.19;7685888;32;37698;-81
2023/01/17 18:55:36;;;;;;;6.32;3.47;;;;;;;6.45;67.50;97225.31;7685721;32;39425;-81
2023/01/17 18:59:53;;;;;;;7.18;3.30;;;;;;;7.11;65.20;97204.69;7685405;32;40196;-81
2023/01/17 19:04:12;;;;;;;5.05;3.40;;;;;;;6.90;66.28;97193.59;7685602;32;37747;-81
2023/01/17 19:08:30;;;;;;;6.62;3.42;;;;;;;6.86;66.03;97192.59;7685794;32;38178;-81
2023/01/17 19:12:46;;;;;;;3.92;2.90;;;;;;;6.20;67.58;97197.75;7671861;32;40192;-82
2023/01/17 19:17:02;;;;;;;5.72;2.80;;;;;;;6.73;66.19;97196.22;7685440;32;40180;-81
2023/01/17 19:21:21;;;;;;;3.55;2.30;;;;;;;6.73;66.01;97194.28;7685559;32;38557;-81
2023/01/17 19:25:37;;;;;;;3.80;2.20;;;;;;;6.65;64.56;97196.94;7685712;32;36831;-81
2023/01/17 19:29:53;;;;;;;2.75;2.28;;;;;;;6.76;64.26;97182.03;7685714;32;39904;-81
2023/01/17 19:34:12;;;;;;;3.83;2.42;;;;;;;6.40;64.49;97182.94;7684700;32;39988;-81
2023/01/17 19:38:29;;;;;;;4.50;2.70;;;;;;;6.53;63.52;97175.84;7685138;32;37803;-81
2023/01/17 19:42:46;;;;;;;3.17;2.33;;;;;;;5.93;64.51;97172.38;7685510;32;37602;-81
2023/01/17 19:47:02;;;;;;;4.50;2.67;;;;;;;5.29;66.40;97155.38;7685477;32;39350;-81
2023/01/17 19:51:19;;;;;;;3.35;2.70;;;;;;;5.80;65.10;97135.37;7684866;32;40882;-81
2023/01/17 19:55:38;;;;;;;4.05;2.50;;;;;;;5.19;66.72;97122.09;7685290;32;37877;-81
2023/01/17 19:59:55;;;;;;;2.95;2.62;;;;;;;5.48;65.68;97112.81;7685166;32;37021;-81
2023/01/17 20:04:11;;;;;;;4.18;3.10;;;;;;;5.69;65.37;97099.66;7684509;32;40068;-83
2023/01/17 20:08:27;;;;;;;3.85;2.78;;;;;;;5.23;66.39;97090.66;7684617;32;39888;-82
2023/01/17 20:12:44;;;;;;;4.45;2.83;;;;;;;5.48;65.59;97085.78;7684372;32;38583;-81
2023/01/17 20:17:00;;;;;;;3.25;2.55;;;;;;;5.43;66.06;97067.00;7684956;32;37890;-80
2023/01/17 20:21:18;;;;;;;3.05;2.40;;;;;;;5.13;67.18;97058.47;7683640;32;39412;-80
2023/01/17 20:25:35;;;;;;;2.80;2.60;;;;;;;5.57;65.37;97069.66;7670580;32;39840;-81
2023/01/17 20:29:51;;;;;;;2.92;2.50;;;;;;;5.24;66.58;97065.25;7683586;32;37849;-80
2023/01/17 20:34:10;;;;;;;2.22;2.10;;;;;;;4.90;68.13;97054.91;7681006;32;37670;-82
2023/01/17 20:38:29;;;;;;;2.72;2.15;;;;;;;5.14;67.04;97051.97;7674172;32;39412;-82
2023/01/17 20:42:45;;;;;;;2.40;2.20;;;;;;;4.88;67.42;97051.69;7681920;32;40873;-82
2023/01/17 20:47:02;;;;;;;4.18;2.10;;;;;;;4.81;67.66;97041.31;7683865;32;37663;-81
2023/01/17 20:51:19;;;;;;;2.20;2.00;;;;;;;4.81;66.28;97025.12;7683960;32;37066;-83
2023/01/17 20:55:38;;;;;;;2.22;2.08;;;;;;;4.99;65.68;97006.37;7683893;32;40056;-81
2023/01/17 20:59:55;;;;;;;2.72;2.20;;;;;;;4.84;65.85;96996.72;7683230;32;39843;-82
2023/01/17 21:04:11;;;;;;;2.30;2.10;;;;;;;4.61;65.95;96993.16;7683834;32;38576;-82
2023/01/17 21:08:36;;;;;;;2.22;2.08;;;;;;;4.75;65.70;96985.81;7683332;32;37839;-83
2023/01/17 21:12:52;;;;;;;2.40;2.20;;;;;;;4.50;65.74;96990.66;7680410;32;38912;-82
2023/01/17 21:17:09;;;;;;;5.15;2.12;;;;;;;4.40;66.67;96988.16;7679578;32;40826;-83
2023/01/17 21:21:28;;;;;;;2.30;2.10;;;;;;;4.62;65.57;96968.56;7681727;32;37749;-82
2023/01/17 21:25:56;;;;;;;3.33;2.20;;;;;;;4.03;68.29;96962.94;7683882;32;36839;-83
2023/01/17 21:30:12;;;;;;;2.67;2.20;;;;;;;4.48;66.32;96957.78;7683549;32;39364;-82
2023/01/17 21:34:31;;;;;;;2.45;2.25;;;;;;;4.06;68.49;96959.66;7683687;32;41441;-83
2023/01/17 21:38:53;;;;;;;3.50;2.40;;;;;;;4.19;67.21;96949.19;7681278;32;36959;-83
2023/01/17 21:43:10;;;;;;;2.65;2.28;;;;;;;3.40;69.79;96932.00;7681012;32;38428;-84
2023/01/17 21:47:26;;;;;;;2.40;2.30;;;;;;;4.23;67.28;96912.44;7681898;32;39466;-82
2023/01/17 22:00:44;;;;;;;2.25;2.10;;;;;;;3.42;69.88;96891.31;7669191;32;38265;-81
2023/01/17 22:05:01;;;;;;;2.20;2.10;;;;;;;3.94;68.77;96862.31;7679909;32;39368;-81
2023/01/17 22:09:17;;;;;;;2.05;1.95;;;;;;;4.22;67.88;96879.25;7680374;32;39860;-80
2023/01/17 22:13:35;;;;;;;2.42;2.22;;;;;;;4.52;67.07;96893.22;7682500;32;38072;-82